Eastend, Canada
Current Conditions -  °F | °C
As of 3:06 AM on Wednesday 28 Jan 2015 (Local Time) from CYYN Reporting Station
Moderate Fog Moderate Fog  
Wind Chill: 20°   Ceiling: 100
Heat Index: 27°   Visibility: 0.25mi
Dew Point: 27°   Wind: 6mph
Humidity: 100%   Direction: 330°NNW
Pressure: 29.75"   Gusts: NA
Location:  49.52°N, 108.82°W
Report Text: CYYN 280906Z AUTO 33005KT 1/4SM FZFG VV001 M03/M03 A2975 RMK ICG SLP101
Loading
Personal Weather Stations






























Interactive Weather Map New forecast layout! Learn more

10-Day Weather Forecast

Advertisements
Track Severe Weather on mobile